Time;durP1;ratioP1;P1;durP2;ratioP2;P2;SDS_P1;SDS_P2;PMS_P1;PMS_P2;Temp;Humidity;BMP_temperature;BMP_pressure;BME280_temperature;BME280_humidity;BME280_pressure;Samples;Min_cycle;Max_cycle;Signal;HPM_P1;HPM_P2
2023/11/15 00:00:17;;;;;;;1.45;0.40;;;;;;;8.54;nan;95281.28;2042125;29;20056;-53
2023/11/15 00:01:18;;;;;;;0.80;0.30;;;;;;;8.43;nan;95279.25;2042094;29;20056;-54
2023/11/15 00:02:19;;;;;;;0.45;0.28;;;;;;;8.33;nan;95249.53;2041289;29;20052;-53
2023/11/15 00:03:21;;;;;;;1.48;0.40;;;;;;;8.27;nan;95280.88;2042003;29;20056;-53
2023/11/15 00:04:22;;;;;;;0.93;0.32;;;;;;;8.21;nan;95281.19;2042308;29;20063;-53
2023/11/15 00:05:23;;;;;;;0.95;0.47;;;;;;;8.14;nan;95278.06;2041820;29;20052;-53
2023/11/15 00:06:24;;;;;;;1.98;0.35;;;;;;;8.13;nan;95284.16;2042035;29;20066;-53
2023/11/15 00:07:25;;;;;;;1.55;0.40;;;;;;;8.14;nan;95302.16;2042732;29;20039;-53
2023/11/15 00:08:26;;;;;;;0.52;0.30;;;;;;;8.07;nan;95295.63;2042249;29;20048;-52
2023/11/15 00:09:29;;;;;;;0.57;0.20;;;;;;;8.03;nan;95268.25;2042602;29;20050;-54
2023/11/15 00:10:31;;;;;;;0.28;0.20;;;;;;;8.00;nan;95289.06;2042093;29;20217;-53
2023/11/15 00:11:33;;;;;;;3.33;0.82;;;;;;;7.94;nan;95289.38;2042332;29;20047;-54
2023/11/15 00:12:34;;;;;;;1.42;0.35;;;;;;;7.88;nan;95290.47;2042269;29;20052;-55
2023/11/15 00:13:36;;;;;;;1.17;0.52;;;;;;;7.84;nan;95307.06;2042243;29;20039;-53
2023/11/15 00:14:38;;;;;;;0.82;0.30;;;;;;;7.80;nan;95308.09;2041903;29;20043;-54
2023/11/15 00:15:39;;;;;;;0.32;0.20;;;;;;;7.78;nan;95296.16;2042246;29;20035;-53
2023/11/15 00:16:40;;;;;;;0.55;0.30;;;;;;;7.76;nan;95303.19;2042399;29;20054;-53
2023/11/15 00:17:41;;;;;;;0.98;0.30;;;;;;;7.76;nan;95304.00;2042321;29;20472;-53
2023/11/15 00:18:42;;;;;;;0.75;0.30;;;;;;;7.72;nan;95310.22;2042370;29;20031;-53
2023/11/15 00:19:45;;;;;;;1.05;0.60;;;;;;;7.70;nan;95310.31;2042377;29;20040;-53
2023/11/15 00:20:46;;;;;;;1.80;0.43;;;;;;;7.72;nan;95305.03;2041872;29;20052;-53
2023/11/15 00:21:49;;;;;;;1.13;0.38;;;;;;;7.74;nan;95316.16;2041939;29;20047;-53
2023/11/15 00:22:50;;;;;;;1.25;0.30;;;;;;;7.73;nan;95307.56;2042558;29;20428;-53
2023/11/15 00:23:51;;;;;;;1.02;0.30;;;;;;;7.71;nan;95324.06;2042208;29;20039;-53
2023/11/15 00:24:53;;;;;;;1.25;0.32;;;;;;;7.69;nan;95333.63;2042165;29;20399;-53
2023/11/15 00:25:54;;;;;;;1.27;0.35;;;;;;;7.69;nan;95321.53;2041870;29;20055;-53
2023/11/15 00:26:55;;;;;;;1.55;0.55;;;;;;;7.68;nan;95319.03;2042061;29;20052;-53
2023/11/15 00:27:56;;;;;;;1.38;0.40;;;;;;;7.70;nan;95323.22;2041738;29;20052;-55
2023/11/15 00:28:57;;;;;;;2.35;0.40;;;;;;;7.68;nan;95325.03;2033818;29;20516;-53
2023/11/15 00:29:59;;;;;;;1.55;0.57;;;;;;;7.71;nan;95329.22;2026234;29;20048;-53
2023/11/15 00:31:00;;;;;;;1.25;0.40;;;;;;;7.70;nan;95330.16;2033993;29;20052;-53
2023/11/15 00:32:01;;;;;;;1.10;0.40;;;;;;;7.71;nan;95332.66;2033684;29;20444;-53
2023/11/15 00:33:03;;;;;;;1.40;0.47;;;;;;;7.70;nan;95323.22;2026026;29;20055;-53
2023/11/15 00:34:05;;;;;;;0.88;0.40;;;;;;;7.69;nan;95336.22;2033477;29;20486;-53
2023/11/15 00:35:06;;;;;;;1.98;0.30;;;;;;;7.66;nan;95333.78;2041553;29;20055;-53
2023/11/15 00:36:11;;;;;;;1.25;0.40;;;;;;;7.64;nan;95331.25;2042063;29;20062;-54
2023/11/15 00:37:12;;;;;;;0.80;0.40;;;;;;;7.63;nan;95313.25;2042010;29;20044;-56
2023/11/15 00:38:14;;;;;;;1.83;0.93;;;;;;;7.65;nan;95332.09;2033355;29;20048;-53
2023/11/15 00:39:15;;;;;;;0.15;0.15;;;;;;;7.61;nan;95339.16;2032425;29;20056;-53
2023/11/15 00:40:17;;;;;;;2.78;0.40;;;;;;;7.60;nan;95332.31;2041147;29;20693;-54
2023/11/15 00:41:18;;;;;;;0.60;0.30;;;;;;;7.63;nan;95342.50;2033208;29;20055;-53
2023/11/15 00:42:19;;;;;;;1.80;0.20;;;;;;;7.59;nan;95340.97;2032483;29;20079;-53
2023/11/15 00:43:20;;;;;;;1.27;0.50;;;;;;;7.59;nan;95346.16;2032794;29;20052;-53
2023/11/15 00:44:21;;;;;;;0.85;0.30;;;;;;;7.55;nan;95339.44;2033353;29;20063;-53
2023/11/15 00:45:25;;;;;;;0.80;0.30;;;;;;;7.57;nan;95341.97;2033777;29;20052;-53
2023/11/15 00:46:26;;;;;;;1.42;0.38;;;;;;;7.57;nan;95344.53;2026119;29;20052;-53
2023/11/15 00:47:28;;;;;;;1.08;0.30;;;;;;;7.56;nan;95355.78;2025178;29;20060;-53
2023/11/15 00:48:29;;;;;;;0.35;0.20;;;;;;;7.60;nan;95349.56;2033696;29;20050;-52
2023/11/15 00:49:30;;;;;;;0.90;0.35;;;;;;;7.56;nan;95327.34;2033775;29;20047;-53
2023/11/15 00:50:31;;;;;;;0.90;0.35;;;;;;;7.49;nan;95345.72;2033192;29;20059;-54
2023/11/15 00:51:32;;;;;;;0.70;0.28;;;;;;;7.46;nan;95334.69;2042067;29;20054;-52
2023/11/15 00:52:33;;;;;;;0.38;0.30;;;;;;;7.45;nan;95322.66;2042267;29;20044;-54
2023/11/15 00:53:34;;;;;;;0.20;0.20;;;;;;;7.47;nan;95352.69;2041695;29;20046;-53
2023/11/15 00:54:35;;;;;;;1.30;0.40;;;;;;;7.48;nan;95364.72;2041750;29;20048;-53
2023/11/15 00:55:36;;;;;;;1.95;0.60;;;;;;;7.55;nan;95362.69;2041624;29;20048;-53
2023/11/15 00:56:38;;;;;;;0.63;0.38;;;;;;;7.58;nan;95378.03;2041792;29;20059;-53
2023/11/15 00:57:39;;;;;;;0.15;0.10;;;;;;;7.59;nan;95369.41;2041659;29;20500;-53
2023/11/15 00:58:41;;;;;;;0.43;0.30;;;;;;;7.54;nan;95371.34;2041890;29;20050;-54
2023/11/15 00:59:47;;;;;;;1.58;0.43;;;;;;;7.54;nan;95367.91;2041006;29;20058;-53
2023/11/15 01:00:49;;;;;;;0.60;0.35;;;;;;;7.47;nan;95373.38;2041113;29;20047;-53
2023/11/15 01:01:57;;;;;;;0.93;0.57;;;;;;;7.50;nan;95367.22;2033906;29;20043;-53
2023/11/15 01:02:59;;;;;;;1.45;0.20;;;;;;;7.48;nan;95364.72;2033181;29;20481;-52
2023/11/15 01:04:00;;;;;;;1.45;0.20;;;;;;;7.49;nan;95376.72;2042000;29;20400;-53
2023/11/15 01:05:01;;;;;;;0.52;0.20;;;;;;;7.55;nan;95365.28;2041424;29;20058;-53
2023/11/15 01:06:02;;;;;;;1.38;0.30;;;;;;;7.68;nan;95370.72;2042021;29;20485;-54
2023/11/15 01:07:03;;;;;;;1.17;0.38;;;;;;;7.72;nan;95378.28;2042017;29;20048;-53
2023/11/15 01:08:04;;;;;;;0.43;0.40;;;;;;;7.76;nan;95386.72;2041799;29;20051;-52
2023/11/15 01:09:08;;;;;;;1.52;0.47;;;;;;;7.72;nan;95390.34;2033657;29;20055;-53
2023/11/15 01:10:09;;;;;;;3.08;0.30;;;;;;;7.71;nan;95396.44;2034114;29;20429;-53
2023/11/15 01:11:10;;;;;;;0.40;0.20;;;;;;;7.74;nan;95378.19;2033639;29;20048;-53
2023/11/15 01:12:11;;;;;;;0.77;0.30;;;;;;;7.74;nan;95398.88;2033733;29;20059;-52
2023/11/15 01:13:13;;;;;;;1.05;0.20;;;;;;;7.77;nan;95400.47;2033555;29;20067;-53
2023/11/15 01:14:15;;;;;;;0.45;0.30;;;;;;;7.76;nan;95372.97;2033486;29;20044;-53
2023/11/15 01:15:16;;;;;;;0.75;0.22;;;;;;;7.83;nan;95379.50;2033597;29;20400;-52
2023/11/15 01:16:17;;;;;;;0.50;0.20;;;;;;;7.92;nan;95379.94;2033673;29;20052;-52
2023/11/15 01:17:18;;;;;;;1.38;0.45;;;;;;;7.98;nan;95399.50;2041968;29;20058;-54
2023/11/15 01:18:22;;;;;;;3.70;0.50;;;;;;;8.05;nan;95390.53;2041762;29;20412;-53
2023/11/15 01:19:23;;;;;;;0.20;0.20;;;;;;;8.08;nan;95400.75;2041650;29;20062;-53
2023/11/15 01:20:25;;;;;;;0.90;0.20;;;;;;;8.09;nan;95402.41;2041923;29;20047;-53
2023/11/15 01:21:26;;;;;;;2.47;0.40;;;;;;;8.06;nan;95392.22;2041992;29;20050;-54
2023/11/15 01:22:27;;;;;;;1.10;0.30;;;;;;;8.07;nan;95398.22;2033435;29;20113;-53
2023/11/15 01:23:29;;;;;;;0.77;0.30;;;;;;;8.05;nan;95412.97;2025043;29;20052;-53
2023/11/15 01:24:30;;;;;;;0.63;0.30;;;;;;;8.00;nan;95412.34;2033426;29;20048;-53
2023/11/15 01:25:32;;;;;;;1.27;0.20;;;;;;;7.93;nan;95407.44;2041009;29;20063;-53
2023/11/15 01:26:33;;;;;;;2.08;0.35;;;;;;;7.93;nan;95419.53;2041742;29;20040;-53
2023/11/15 01:27:36;;;;;;;5.68;0.82;;;;;;;7.92;nan;95402.38;2032830;29;20440;-53
2023/11/15 01:28:37;;;;;;;0.55;0.40;;;;;;;7.98;nan;95425.34;2025400;29;20055;-53
2023/11/15 01:29:38;;;;;;;1.73;0.57;;;;;;;7.94;nan;95431.59;2033568;29;20044;-53
2023/11/15 01:30:39;;;;;;;1.38;0.40;;;;;;;7.91;nan;95421.34;2040951;29;20043;-53
2023/11/15 01:31:40;;;;;;;1.85;0.30;;;;;;;7.90;nan;95435.19;2041632;29;20051;-52
2023/11/15 01:32:42;;;;;;;1.85;0.50;;;;;;;7.87;nan;95431.00;2041488;29;20057;-53
2023/11/15 01:33:43;;;;;;;1.58;0.30;;;;;;;7.87;nan;95438.75;2033503;29;20416;-53
2023/11/15 01:34:45;;;;;;;0.50;0.15;;;;;;;7.92;nan;95423.03;2033828;29;20381;-53
2023/11/15 01:35:46;;;;;;;0.70;0.30;;;;;;;7.99;nan;95421.00;2041840;29;20055;-56
2023/11/15 01:36:47;;;;;;;4.20;0.80;;;;;;;8.02;nan;95437.25;2033533;29;20048;-53
2023/11/15 01:37:50;;;;;;;1.75;0.47;;;;;;;8.03;nan;95445.81;2033340;29;20048;-53
2023/11/15 01:38:51;;;;;;;2.90;0.40;;;;;;;8.03;nan;95449.25;2032945;29;20504;-53
2023/11/15 01:39:52;;;;;;;1.38;0.40;;;;;;;7.99;nan;95442.53;2025611;29;20053;-53
2023/11/15 01:40:53;;;;;;;0.45;0.20;;;;;;;8.01;nan;95452.81;2025443;29;20044;-53
2023/11/15 01:41:56;;;;;;;0.55;0.20;;;;;;;7.98;nan;95448.63;2033343;29;20392;-52
2023/11/15 01:42:57;;;;;;;1.42;0.22;;;;;;;7.96;nan;95453.00;2041775;29;20056;-53
2023/11/15 01:43:58;;;;;;;1.40;0.40;;;;;;;7.98;nan;95451.19;2033626;29;20048;-53
2023/11/15 01:45:00;;;;;;;0.45;0.30;;;;;;;8.04;nan;95455.25;2032815;29;20059;-53
2023/11/15 01:46:02;;;;;;;0.80;0.30;;;;;;;8.05;nan;95460.38;2032681;29;20052;-53
2023/11/15 01:47:04;;;;;;;1.30;0.20;;;;;;;8.08;nan;95456.81;2017791;29;20057;-53
2023/11/15 01:48:05;;;;;;;3.13;0.32;;;;;;;8.08;nan;95456.81;2018035;29;20083;-53
2023/11/15 01:49:06;;;;;;;0.65;0.30;;;;;;;8.11;nan;95456.66;2034325;29;20044;-53
2023/11/15 01:50:10;;;;;;;4.30;0.32;;;;;;;8.11;nan;95460.06;2034984;29;20056;-53
2023/11/15 01:51:11;;;;;;;1.65;0.40;;;;;;;8.13;nan;95460.84;2034976;29;20056;-53
2023/11/15 01:52:12;;;;;;;0.40;0.35;;;;;;;8.15;nan;95453.00;2034695;29;20083;-54
2023/11/15 01:53:14;;;;;;;0.60;0.40;;;;;;;8.15;nan;95466.81;2034990;29;20527;-52
2023/11/15 01:54:15;;;;;;;0.88;0.50;;;;;;;8.16;nan;95458.13;2043060;29;20056;-54
2023/11/15 01:55:18;;;;;;;2.05;0.43;;;;;;;8.16;nan;95465.88;2026744;29;20048;-53
2023/11/15 01:56:20;;;;;;;1.20;0.30;;;;;;;8.17;nan;95464.13;2019428;29;20075;-53
2023/11/15 01:57:21;;;;;;;1.95;0.40;;;;;;;8.16;nan;95465.88;2034281;29;20508;-53
2023/11/15 01:58:25;;;;;;;0.90;0.40;;;;;;;8.19;nan;95480.41;2042601;29;20032;-53
2023/11/15 01:59:26;;;;;;;1.63;0.40;;;;;;;8.21;nan;95463.09;2034334;29;20056;-53
2023/11/15 02:00:27;;;;;;;0.98;0.20;;;;;;;8.22;nan;95463.91;2019449;29;20048;-52
2023/11/15 02:01:30;;;;;;;1.08;0.25;;;;;;;8.20;nan;95465.72;2026684;29;20053;-53
2023/11/15 02:02:31;;;;;;;2.03;0.65;;;;;;;8.21;nan;95485.53;2034061;29;20052;-53
2023/11/15 02:03:32;;;;;;;0.47;0.32;;;;;;;8.18;nan;95474.41;2034992;29;20055;-53
2023/11/15 02:04:33;;;;;;;1.65;0.65;;;;;;;8.11;nan;95483.34;2043230;29;20062;-53
2023/11/15 02:05:34;;;;;;;4.18;0.30;;;;;;;8.06;nan;95485.31;2034836;29;20448;-53
2023/11/15 02:06:36;;;;;;;0.93;0.45;;;;;;;7.99;nan;95488.22;2035196;29;20043;-52
2023/11/15 02:07:37;;;;;;;0.80;0.30;;;;;;;7.92;nan;95491.09;2026331;29;20048;-53
2023/11/15 02:08:39;;;;;;;0.47;0.30;;;;;;;7.86;nan;95493.13;2027257;29;20040;-53
2023/11/15 02:09:41;;;;;;;1.00;0.50;;;;;;;7.88;nan;95491.31;2037485;29;20051;-53
2023/11/15 02:10:43;;;;;;;0.70;0.45;;;;;;;7.92;nan;95503.19;2027433;29;20041;-53
2023/11/15 02:11:44;;;;;;;3.47;0.45;;;;;;;7.93;nan;95492.78;2035133;29;20047;-53
2023/11/15 02:12:45;;;;;;;0.75;0.20;;;;;;;7.97;nan;95490.91;2042977;29;20046;-53
2023/11/15 02:13:47;;;;;;;2.60;0.40;;;;;;;8.00;nan;95502.84;2034367;29;20436;-53
2023/11/15 02:14:48;;;;;;;3.70;0.35;;;;;;;7.97;nan;95495.25;2034419;29;20043;-53
2023/11/15 02:15:49;;;;;;;2.85;0.63;;;;;;;8.01;nan;95501.94;2035153;29;20040;-52
2023/11/15 02:16:51;;;;;;;3.33;0.40;;;;;;;8.07;nan;95502.50;2034716;29;20051;-53
2023/11/15 02:17:54;;;;;;;0.95;0.38;;;;;;;8.07;nan;95512.00;2034695;29;20048;-53
2023/11/15 02:18:56;;;;;;;1.90;0.40;;;;;;;8.05;nan;95493.16;2042303;29;20508;-53
2023/11/15 02:19:57;;;;;;;0.30;0.20;;;;;;;8.08;nan;95513.69;2042939;29;20066;-53
2023/11/15 02:20:58;;;;;;;1.67;0.52;;;;;;;8.06;nan;95521.50;2043440;29;20462;-53
2023/11/15 02:21:59;;;;;;;4.47;0.75;;;;;;;8.07;nan;95523.22;2043047;29;20047;-53
2023/11/15 02:23:00;;;;;;;2.45;0.40;;;;;;;8.07;nan;95518.03;2043210;29;20400;-53
2023/11/15 02:24:01;;;;;;;1.42;0.40;;;;;;;8.05;nan;95513.84;2019534;29;20048;-53
2023/11/15 02:25:02;;;;;;;1.20;0.40;;;;;;;8.02;nan;95525.16;2003616;29;20085;-53
2023/11/15 02:26:04;;;;;;;1.25;0.38;;;;;;;7.96;nan;95509.91;2019525;29;20418;-53
2023/11/15 02:27:05;;;;;;;0.45;0.10;;;;;;;7.95;nan;95531.50;2034907;29;20056;-52
2023/11/15 02:28:07;;;;;;;1.38;0.22;;;;;;;7.94;nan;95528.06;2034593;29;20059;-53
2023/11/15 02:29:10;;;;;;;0.40;0.20;;;;;;;7.97;nan;95519.34;2034809;29;20059;-53
2023/11/15 02:30:12;;;;;;;1.00;0.38;;;;;;;7.90;nan;95541.19;2043399;29;20396;-53
2023/11/15 02:31:13;;;;;;;0.80;0.30;;;;;;;7.83;nan;95544.94;2042612;29;20047;-52
2023/11/15 02:32:14;;;;;;;0.60;0.38;;;;;;;7.80;nan;95550.25;2043010;29;20404;-53
2023/11/15 02:33:15;;;;;;;1.25;0.20;;;;;;;7.77;nan;95553.81;2034410;29;20075;-53
2023/11/15 02:34:18;;;;;;;2.78;0.32;;;;;;;7.78;nan;95536.56;2034782;29;20048;-53
2023/11/15 02:35:19;;;;;;;0.80;0.20;;;;;;;7.73;nan;95536.78;2034264;29;20445;-53
2023/11/15 02:36:20;;;;;;;1.65;0.40;;;;;;;7.70;nan;95531.75;2034366;29;20044;-53
2023/11/15 02:37:21;;;;;;;2.80;0.40;;;;;;;7.70;nan;95539.50;2034841;29;20436;-53
2023/11/15 02:38:22;;;;;;;1.63;0.30;;;;;;;7.66;nan;95564.59;2034790;29;20044;-53
2023/11/15 02:39:23;;;;;;;2.15;0.40;;;;;;;7.63;nan;95554.41;2034811;29;20063;-53
2023/11/15 02:40:25;;;;;;;0.85;0.25;;;;;;;7.55;nan;95551.31;2042780;29;20070;-52
2023/11/15 02:41:26;;;;;;;0.82;0.30;;;;;;;7.52;nan;95546.28;2042737;29;20056;-53
2023/11/15 02:42:27;;;;;;;1.65;0.15;;;;;;;7.51;nan;95550.63;2042300;29;20056;-53
2023/11/15 02:43:28;;;;;;;0.60;0.32;;;;;;;7.50;nan;95548.06;2042671;29;20494;-53
2023/11/15 02:44:29;;;;;;;1.00;0.40;;;;;;;7.53;nan;95563.44;2033979;29;20055;-53
2023/11/15 02:45:30;;;;;;;1.27;0.28;;;;;;;7.55;nan;95563.41;2027041;29;20405;-53
2023/11/15 02:46:31;;;;;;;4.50;0.30;;;;;;;7.54;nan;95575.47;2034647;29;20040;-53
2023/11/15 02:47:32;;;;;;;1.42;0.40;;;;;;;7.52;nan;95577.28;2034439;29;20044;-53
2023/11/15 02:48:33;;;;;;;4.03;0.30;;;;;;;7.51;nan;95570.41;2034541;29;20213;-53
2023/11/15 02:49:37;;;;;;;0.90;0.30;;;;;;;7.53;nan;95572.94;2034666;29;20044;-53
2023/11/15 02:50:38;;;;;;;1.27;0.60;;;;;;;7.53;nan;95578.94;2026649;29;20059;-53
2023/11/15 02:51:39;;;;;;;0.60;0.20;;;;;;;7.52;nan;95574.69;2034441;29;20036;-53
2023/11/15 02:52:41;;;;;;;0.88;0.35;;;;;;;7.52;nan;95587.63;2042946;29;20043;-53
2023/11/15 02:53:42;;;;;;;2.38;0.30;;;;;;;7.55;nan;95571.97;2042957;29;20043;-53
2023/11/15 02:54:43;;;;;;;1.40;0.40;;;;;;;7.61;nan;95586.38;2042257;29;20047;-52
2023/11/15 02:55:47;;;;;;;0.88;0.40;;;;;;;7.61;nan;95570.88;2042635;29;20052;-53
2023/11/15 02:56:48;;;;;;;0.82;0.52;;;;;;;7.66;nan;95585.28;2034351;29;20055;-56
2023/11/15 02:57:49;;;;;;;1.23;0.32;;;;;;;7.69;nan;95579.16;2035511;29;20048;-53
2023/11/15 02:58:52;;;;;;;0.90;0.40;;;;;;;7.69;nan;95577.41;2035551;29;20051;-59
2023/11/15 02:59:53;;;;;;;0.95;0.40;;;;;;;7.70;nan;95571.34;2027730;29;20045;-53
2023/11/15 03:00:54;;;;;;;1.55;0.50;;;;;;;7.73;nan;95585.88;2035543;29;20055;-52
2023/11/15 03:01:55;;;;;;;0.35;0.30;;;;;;;7.73;nan;95580.72;2043016;29;20488;-54
2023/11/15 03:02:58;;;;;;;2.83;0.40;;;;;;;7.73;nan;95588.47;2042584;29;20039;-53
2023/11/15 03:03:59;;;;;;;1.50;0.40;;;;;;;7.70;nan;95589.44;2043054;29;20051;-53
2023/11/15 03:05:00;;;;;;;1.05;0.35;;;;;;;7.66;nan;95590.47;2042616;29;20056;-53
2023/11/15 03:06:03;;;;;;;1.38;0.40;;;;;;;7.65;nan;95586.19;2033868;29;20056;-53
2023/11/15 03:07:04;;;;;;;1.45;0.50;;;;;;;7.64;nan;95594.84;2034696;29;20092;-53
2023/11/15 03:08:05;;;;;;;1.52;0.20;;;;;;;7.66;nan;95599.97;2034217;29;20055;-53
2023/11/15 03:09:07;;;;;;;1.17;0.50;;;;;;;7.67;nan;95599.91;2034309;29;20044;-53
2023/11/15 03:10:09;;;;;;;1.45;0.60;;;;;;;7.67;nan;95601.63;2042936;29;20058;-53
2023/11/15 03:11:10;;;;;;;1.05;0.20;;;;;;;7.65;nan;95609.47;2043080;29;20051;-53
2023/11/15 03:12:11;;;;;;;1.33;0.40;;;;;;;7.64;nan;95612.94;2042514;29;20063;-53
2023/11/15 03:13:12;;;;;;;1.13;0.50;;;;;;;7.62;nan;95609.59;2042635;29;20388;-52
2023/11/15 03:14:13;;;;;;;0.75;0.40;;;;;;;7.62;nan;95604.44;2042830;29;20051;-53
2023/11/15 03:15:14;;;;;;;0.75;0.40;;;;;;;7.64;nan;95614.69;2042648;29;20043;-53
2023/11/15 03:16:15;;;;;;;3.33;0.55;;;;;;;7.61;nan;95615.66;2042168;29;20055;-54
2023/11/15 03:17:17;;;;;;;3.35;0.63;;;;;;;7.59;nan;95614.91;2041681;29;20066;-53
2023/11/15 03:18:18;;;;;;;3.22;0.60;;;;;;;7.60;nan;95616.56;2033668;29;20051;-52
2023/11/15 03:19:20;;;;;;;0.32;0.20;;;;;;;7.60;nan;95624.31;2033937;29;20052;-52
2023/11/15 03:20:21;;;;;;;2.47;0.50;;;;;;;7.60;nan;95623.47;2041799;29;20465;-52
2023/11/15 03:21:22;;;;;;;2.05;0.38;;;;;;;7.59;nan;95632.97;2042428;29;20063;-53
2023/11/15 03:22:23;;;;;;;1.63;0.40;;;;;;;7.60;nan;95636.41;2042732;29;20047;-52
2023/11/15 03:23:24;;;;;;;0.80;0.30;;;;;;;7.59;nan;95635.56;2042771;29;20043;-53
2023/11/15 03:24:25;;;;;;;1.80;0.43;;;;;;;7.58;nan;95635.63;2033713;29;20056;-53
2023/11/15 03:25:28;;;;;;;1.88;0.40;;;;;;;7.58;nan;95635.63;2033629;29;20051;-53
2023/11/15 03:26:29;;;;;;;2.45;0.55;;;;;;;7.55;nan;95638.34;2033699;29;20056;-53
2023/11/15 03:27:31;;;;;;;0.82;0.45;;;;;;;7.54;nan;95629.75;2033745;29;20054;-53
2023/11/15 03:28:32;;;;;;;5.63;0.40;;;;;;;7.54;nan;95637.50;2042949;29;20027;-53
2023/11/15 03:29:33;;;;;;;1.35;0.30;;;;;;;7.55;nan;95626.25;2042784;29;20392;-53
2023/11/15 03:30:34;;;;;;;1.13;0.47;;;;;;;7.57;nan;95639.13;2042104;29;20129;-53
2023/11/15 03:31:35;;;;;;;2.45;0.45;;;;;;;7.58;nan;95641.63;2042746;29;20051;-53
2023/11/15 03:32:37;;;;;;;3.05;0.50;;;;;;;7.54;nan;95637.50;2042570;29;20051;-53
2023/11/15 03:33:40;;;;;;;3.80;0.60;;;;;;;7.54;nan;95647.84;2042319;29;20047;-53
2023/11/15 03:34:41;;;;;;;1.85;0.40;;;;;;;7.54;nan;95631.47;2042596;29;20035;-53
2023/11/15 03:35:43;;;;;;;2.47;0.32;;;;;;;7.54;nan;95654.72;2042589;29;20051;-53
2023/11/15 03:36:44;;;;;;;0.75;0.30;;;;;;;7.53;nan;95656.47;2042675;29;20039;-53
2023/11/15 03:37:45;;;;;;;1.30;0.50;;;;;;;7.53;nan;95661.63;2042536;29;20047;-53
2023/11/15 03:38:46;;;;;;;0.88;0.40;;;;;;;7.53;nan;95673.72;2041853;29;20047;-53
2023/11/15 03:39:47;;;;;;;3.25;0.60;;;;;;;7.51;nan;95661.72;2041449;29;20107;-53
2023/11/15 03:40:48;;;;;;;2.00;0.35;;;;;;;7.51;nan;95673.78;2042596;29;20043;-53
2023/11/15 03:41:50;;;;;;;1.55;0.50;;;;;;;7.49;nan;95670.44;2042257;29;20051;-53
2023/11/15 03:42:51;;;;;;;1.65;0.40;;;;;;;7.50;nan;95677.28;2042616;29;20508;-53
2023/11/15 03:43:52;;;;;;;2.75;0.55;;;;;;;7.51;nan;95678.94;2033636;29;20056;-53
2023/11/15 03:44:53;;;;;;;1.52;0.40;;;;;;;7.49;nan;95676.44;2026518;29;20425;-53
2023/11/15 03:45:54;;;;;;;0.15;0.10;;;;;;;7.48;nan;95674.75;2034490;29;20039;-53
2023/11/15 03:46:55;;;;;;;3.75;0.30;;;;;;;7.47;nan;95677.41;2026633;29;20048;-53
2023/11/15 03:47:57;;;;;;;1.30;0.40;;;;;;;7.45;nan;95680.03;2033906;29;20051;-53
2023/11/15 03:48:58;;;;;;;0.88;0.30;;;;;;;7.46;nan;95678.31;2042568;29;20047;-53
2023/11/15 03:50:00;;;;;;;0.98;0.28;;;;;;;7.47;nan;95662.72;2042640;29;20507;-53
2023/11/15 03:51:01;;;;;;;1.17;0.22;;;;;;;7.47;nan;95682.56;2033797;29;20408;-53
2023/11/15 03:52:02;;;;;;;1.40;0.30;;;;;;;7.47;nan;95677.41;2034243;29;20047;-53
2023/11/15 03:53:03;;;;;;;1.65;0.20;;;;;;;7.48;nan;95684.22;2026530;29;20056;-53
2023/11/15 03:54:05;;;;;;;0.70;0.30;;;;;;;7.48;nan;95682.50;2034290;29;20496;-53
2023/11/15 03:55:06;;;;;;;2.90;0.68;;;;;;;7.49;nan;95680.78;2034236;29;20058;-53
2023/11/15 03:56:08;;;;;;;2.10;0.20;;;;;;;7.49;nan;95675.59;2042390;29;20396;-53
2023/11/15 03:57:11;;;;;;;0.40;0.20;;;;;;;7.47;nan;95688.56;2042570;29;20047;-53
2023/11/15 03:58:12;;;;;;;1.33;0.40;;;;;;;7.46;nan;95686.06;2042499;29;20056;-52
2023/11/15 03:59:13;;;;;;;1.75;0.28;;;;;;;7.45;nan;95689.53;2042047;29;20059;-53
2023/11/15 04:00:16;;;;;;;2.10;0.50;;;;;;;7.44;nan;95677.53;2042020;29;20507;-53
2023/11/15 04:01:17;;;;;;;2.88;0.68;;;;;;;7.43;nan;95692.19;2042387;29;20044;-53
2023/11/15 04:02:18;;;;;;;0.70;0.20;;;;;;;7.42;nan;95685.31;2042463;29;20051;-53
2023/11/15 04:03:20;;;;;;;3.00;0.80;;;;;;;7.41;nan;95685.41;2041557;29;20047;-52
2023/11/15 04:04:22;;;;;;;1.48;0.20;;;;;;;7.40;nan;95681.13;2042031;29;20055;-52
2023/11/15 04:05:23;;;;;;;2.15;0.40;;;;;;;7.39;nan;95682.03;2042449;29;20059;-53
2023/11/15 04:06:24;;;;;;;1.00;0.17;;;;;;;7.40;nan;95688.88;2033555;29;20052;-52
2023/11/15 04:07:26;;;;;;;2.00;0.38;;;;;;;7.38;nan;95676.03;2033663;29;20058;-53
2023/11/15 04:08:27;;;;;;;4.47;0.43;;;;;;;7.37;nan;95692.41;2041819;29;20423;-53
2023/11/15 04:09:28;;;;;;;0.30;0.20;;;;;;;7.33;nan;95697.78;2033661;29;20048;-53
2023/11/15 04:10:29;;;;;;;4.88;0.40;;;;;;;7.28;nan;95709.13;2033556;29;20063;-53
2023/11/15 04:11:37;;;;;;;1.45;0.38;;;;;;;7.24;nan;95705.00;2041801;29;20043;-52
2023/11/15 04:12:38;;;;;;;0.32;0.10;;;;;;;7.21;nan;95697.34;2033889;29;20055;-53
2023/11/15 04:13:39;;;;;;;1.75;0.20;;;;;;;7.22;nan;95704.19;2033342;29;20431;-53
2023/11/15 04:14:41;;;;;;;2.22;0.43;;;;;;;7.23;nan;95703.28;2041358;29;20058;-53
2023/11/15 04:15:42;;;;;;;2.90;0.43;;;;;;;7.22;nan;95699.03;2042254;29;20058;-53
2023/11/15 04:16:44;;;;;;;0.65;0.30;;;;;;;7.26;nan;95705.75;2033995;29;20055;-53
2023/11/15 04:17:45;;;;;;;1.00;0.17;;;;;;;7.26;nan;95704.91;2034248;29;20070;-53
2023/11/15 04:18:46;;;;;;;0.60;0.28;;;;;;;7.25;nan;95711.81;2042328;29;20038;-53
2023/11/15 04:19:47;;;;;;;2.33;0.32;;;;;;;7.22;nan;95717.13;2033775;29;20523;-53
2023/11/15 04:20:48;;;;;;;1.17;0.30;;;;;;;7.21;nan;95705.09;2026293;29;20048;-53
2023/11/15 04:21:52;;;;;;;0.45;0.30;;;;;;;7.24;nan;95714.44;2033770;29;20076;-53
2023/11/15 04:22:53;;;;;;;3.95;0.32;;;;;;;7.29;nan;95730.63;2041909;29;20054;-53
2023/11/15 04:23:54;;;;;;;1.98;0.38;;;;;;;7.31;nan;95715.91;2042306;29;20047;-54
2023/11/15 04:24:55;;;;;;;2.03;0.30;;;;;;;7.36;nan;95726.06;2042242;29;20043;-53
2023/11/15 04:25:58;;;;;;;1.35;0.40;;;;;;;7.40;nan;95727.63;2042227;29;20055;-54
2023/11/15 04:26:59;;;;;;;2.28;0.50;;;;;;;7.42;nan;95721.50;2033934;29;20040;-53
2023/11/15 04:28:00;;;;;;;1.05;0.30;;;;;;;7.42;nan;95731.81;2033182;29;20114;-53
2023/11/15 04:29:01;;;;;;;1.17;0.15;;;;;;;7.43;nan;95733.53;2042276;29;20039;-53
2023/11/15 04:30:02;;;;;;;2.38;0.47;;;;;;;7.41;nan;95731.91;2042337;29;20048;-52
2023/11/15 04:31:04;;;;;;;1.40;0.45;;;;;;;7.41;nan;95735.31;2042272;29;20495;-54
2023/11/15 04:32:06;;;;;;;1.05;0.30;;;;;;;7.41;nan;95737.06;2042152;29;20055;-53
2023/11/15 04:33:07;;;;;;;0.98;0.30;;;;;;;7.39;nan;95737.13;2042456;29;20047;-53
2023/11/15 04:34:08;;;;;;;4.53;0.40;;;;;;;7.44;nan;95724.88;2042134;29;20047;-52
2023/11/15 04:35:09;;;;;;;0.52;0.30;;;;;;;7.49;nan;95742.78;2041687;29;20066;-53
2023/11/15 04:36:10;;;;;;;0.65;0.32;;;;;;;7.48;nan;95733.31;2042155;29;20043;-52
2023/11/15 04:37:11;;;;;;;1.95;0.40;;;;;;;7.53;nan;95725.41;2042069;29;20058;-53
2023/11/15 04:38:12;;;;;;;0.75;0.20;;;;;;;7.51;nan;95740.94;2042197;29;20043;-53
2023/11/15 04:39:13;;;;;;;2.67;0.32;;;;;;;7.46;nan;95742.91;2041847;29;20067;-53
2023/11/15 04:40:15;;;;;;;1.05;0.40;;;;;;;7.45;nan;95725.69;2041896;29;20046;-53
2023/11/15 04:41:16;;;;;;;3.72;0.40;;;;;;;7.44;nan;95737.78;2041285;29;20492;-53
2023/11/15 04:42:20;;;;;;;2.38;0.50;;;;;;;7.44;nan;95744.69;2042060;29;20531;-53
2023/11/15 04:43:21;;;;;;;1.42;0.32;;;;;;;7.46;nan;95746.31;2041833;29;20058;-53
2023/11/15 04:44:23;;;;;;;1.27;0.30;;;;;;;7.45;nan;95734.28;2042161;29;20055;-53
2023/11/15 04:45:24;;;;;;;3.53;0.63;;;;;;;7.45;nan;95736.03;2042171;29;20044;-53
2023/11/15 04:46:25;;;;;;;2.30;0.60;;;;;;;7.41;nan;95744.81;2041892;29;20508;-53
2023/11/15 04:47:26;;;;;;;2.33;0.40;;;;;;;7.36;nan;95736.41;2041765;29;20050;-53
2023/11/15 04:48:27;;;;;;;0.73;0.30;;;;;;;7.35;nan;95742.44;2042049;29;20052;-53
2023/11/15 04:49:28;;;;;;;1.33;0.30;;;;;;;7.38;nan;95732.03;2041702;29;20059;-52
2023/11/15 04:50:29;;;;;;;1.98;0.20;;;;;;;7.38;nan;95737.19;2041810;29;20047;-53
2023/11/15 04:51:30;;;;;;;1.20;0.60;;;;;;;7.36;nan;95736.41;2041683;29;20063;-54
2023/11/15 04:52:31;;;;;;;0.45;0.22;;;;;;;7.35;nan;95703.69;2042303;29;20036;-53
2023/11/15 04:53:33;;;;;;;1.05;0.30;;;;;;;7.34;nan;95731.28;2041534;29;20497;-52
2023/11/15 04:54:34;;;;;;;0.60;0.30;;;;;;;7.32;nan;95727.91;2042160;29;20040;-54
2023/11/15 04:55:36;;;;;;;0.80;0.43;;;;;;;7.33;nan;95737.38;2041895;29;20047;-53
2023/11/15 04:56:37;;;;;;;3.75;0.55;;;;;;;7.28;nan;95734.94;2041597;29;20040;-52
2023/11/15 04:57:39;;;;;;;2.83;0.50;;;;;;;7.33;nan;95739.94;2041986;29;20051;-53
2023/11/15 04:58:40;;;;;;;1.38;0.50;;;;;;;7.33;nan;95739.94;2042085;29;20399;-52
2023/11/15 04:59:41;;;;;;;0.80;0.20;;;;;;;7.34;nan;95743.38;2041870;29;20036;-52